Observations

82.4 °F / 28.0 °C
ENE at 15 MPH
89%
79.0°F / 26.1 °C
29.83" (1010 mb)
5 mile(s)
partly cloudy
2018.04.26 0000 UTC

Observations

Surface


Raw METARs

2018/04/26 00:00
PKWA 260000Z AUTO 07013KT 5SM RA SCT015 SCT023 SCT031 28/26 A2983 RMK AO2 T02800261

Translated METAR

Kwajalein, Bucholz AAF, Kwajalein KMR ATOL Airport, Marshall Islands (PKWA) 08-43N 167-44E 2M
Apr 25, 2018 - 08:00 PM EDT / 2018.04.26 0000 UTC
Wind: from the ENE (070 degrees) at 15 MPH (13 KT):0
Visibility: 5 mile(s):0
Sky conditions: partly cloudy
Weather: rain
Temperature: 82.4 F (28.0 C)
Dew Point: 79.0 F (26.1 C)
Relative Humidity: 89%
Pressure (altimeter): 29.83 in. Hg (1010 hPa)
ob: PKWA 260000Z AUTO 07013KT 5SM RA SCT015 SCT023 SCT031 28/26 A2983 RMK AO2 T02800261
cycle: 0



Upper Air


Latest Skew-T

Skew T Diagram

Latest Data File